createdAt,value
2018-09-29T00:00:07.924Z,99908.84
2018-09-29T00:02:36.860Z,99902.59
2018-09-29T00:05:05.798Z,99903.39
2018-09-29T00:07:34.755Z,99901.78
2018-09-29T00:10:03.842Z,99891.94
2018-09-29T00:12:32.767Z,99894.81
2018-09-29T00:15:01.705Z,99889.33
2018-09-29T00:17:30.690Z,99894.81
2018-09-29T00:19:59.651Z,99884.81
2018-09-29T00:22:28.653Z,99889.95
2018-09-29T00:24:57.630Z,99886.73
2018-09-29T00:27:26.564Z,99895.84
2018-09-29T00:29:55.531Z,99885.81
2018-09-29T00:32:24.463Z,99888.75
2018-09-29T00:34:53.438Z,99882.20
2018-09-29T00:37:22.365Z,99881.25
2018-09-29T00:39:51.320Z,99884.69
2018-09-29T00:42:20.270Z,99891.98
2018-09-29T00:44:49.283Z,99885.16
2018-09-29T00:47:18.234Z,99879.79
2018-09-29T00:49:47.163Z,99878.84
2018-09-29T00:52:16.110Z,99873.67
2018-09-29T00:54:45.090Z,99868.48
2018-09-29T00:57:14.066Z,99867.31
2018-09-29T00:59:43.026Z,99861.09
2018-09-29T01:02:12.107Z,99861.09
2018-09-29T01:04:41.070Z,99860.08
2018-09-29T01:07:10.074Z,99863.44
2018-09-29T01:09:39.021Z,99862.48
2018-09-29T01:12:07.992Z,99859.79
2018-09-29T01:14:36.967Z,99859.45
2018-09-29T01:17:05.902Z,99854.25
2018-09-29T01:19:34.862Z,99847.38
2018-09-29T01:22:03.801Z,99851.07
2018-09-29T01:24:32.753Z,99852.58
2018-09-29T01:27:01.683Z,99843.16
2018-09-29T01:29:30.667Z,99846.97
2018-09-29T01:31:59.593Z,99852.62
2018-09-29T01:34:29.406Z,99853.23
2018-09-29T01:36:58.517Z,99850.53
2018-09-29T01:39:27.471Z,99849.87
2018-09-29T01:41:56.453Z,99858.78
2018-09-29T01:44:25.392Z,99857.66
2018-09-29T01:46:54.349Z,99860.87
2018-09-29T01:49:23.284Z,99855.70
2018-09-29T01:51:52.326Z,99854.04
2018-09-29T01:54:21.267Z,99859.64
2018-09-29T01:56:50.235Z,99860.48
2018-09-29T01:59:19.214Z,99868.08
2018-09-29T02:01:48.159Z,99861.88
2018-09-29T02:04:17.131Z,99862.09
2018-09-29T02:06:46.121Z,99860.92
2018-09-29T02:09:15.066Z,99864.82
2018-09-29T02:11:44.072Z,99856.63
2018-09-29T02:14:13.950Z,99853.48
2018-09-29T02:16:42.869Z,99845.25
2018-09-29T02:19:11.798Z,99843.41
2018-09-29T02:21:40.753Z,99851.97
2018-09-29T02:24:09.682Z,99854.34
2018-09-29T02:26:38.618Z,99856.73
2018-09-29T02:29:07.538Z,99854.70
2018-09-29T02:31:36.483Z,99861.95
2018-09-29T02:34:05.406Z,99866.47
2018-09-29T02:36:34.415Z,99872.20
2018-09-29T02:39:03.563Z,99867.67
2018-09-29T02:41:32.502Z,99868.68
2018-09-29T02:44:01.494Z,99860.47
2018-09-29T02:46:30.415Z,99851.71
2018-09-29T02:48:59.397Z,99854.73
2018-09-29T02:51:28.360Z,99853.75
2018-09-29T02:53:57.295Z,99854.42
2018-09-29T02:56:26.235Z,99845.87
2018-09-29T02:58:55.322Z,99844.36
2018-09-29T03:01:24.270Z,99843.52
2018-09-29T03:03:53.215Z,99849.05
2018-09-29T03:06:22.158Z,99851.39
2018-09-29T03:08:51.100Z,99841.67
2018-09-29T03:11:20.047Z,99840.64
2018-09-29T03:13:49.034Z,99841.65
2018-09-29T03:16:18.044Z,99851.38
2018-09-29T03:18:46.954Z,99850.88
2018-09-29T03:21:15.962Z,99852.72
2018-09-29T03:23:44.890Z,99849.03
2018-09-29T03:26:13.847Z,99855.07
2018-09-29T03:28:42.826Z,99854.06
2018-09-29T03:31:11.785Z,99844.69
2018-09-29T03:33:40.767Z,99852.41
2018-09-29T03:36:09.774Z,99851.38
2018-09-29T03:38:38.727Z,99845.03
2018-09-29T03:41:07.683Z,99843.33
2018-09-29T03:43:36.701Z,99845.70
2018-09-29T03:46:05.684Z,99855.42
2018-09-29T03:48:34.624Z,99850.42
2018-09-29T03:51:03.588Z,99849.72
2018-09-29T03:53:32.570Z,99850.42
2018-09-29T03:56:01.513Z,99847.06
2018-09-29T03:58:30.444Z,99841.34
2018-09-29T04:00:59.424Z,99843.39
2018-09-29T04:03:28.439Z,99845.06
2018-09-29T04:05:57.453Z,99844.89
2018-09-29T04:08:26.385Z,99854.28
2018-09-29T04:10:55.387Z,99853.80
2018-09-29T04:13:24.342Z,99856.64
2018-09-29T04:15:53.282Z,99852.63
2018-09-29T04:18:22.250Z,99844.08
2018-09-29T04:20:51.230Z,99837.38
2018-09-29T04:23:20.249Z,99835.36
2018-09-29T04:25:49.220Z,99836.04
2018-09-29T04:28:18.236Z,99836.36
2018-09-29T04:30:47.177Z,99839.70
2018-09-29T04:33:16.123Z,99842.39
2018-09-29T04:35:45.115Z,99833.01
2018-09-29T04:38:14.067Z,99841.73
2018-09-29T04:40:43.039Z,99840.91
2018-09-29T04:43:12.066Z,99845.77
2018-09-29T04:45:41.070Z,99855.80
2018-09-29T04:48:10.071Z,99855.81
2018-09-29T04:50:39.078Z,99850.09
2018-09-29T04:53:08.034Z,99850.08
2018-09-29T04:55:37.037Z,99853.10
2018-09-29T04:58:06.008Z,99854.38
2018-09-29T05:00:34.953Z,99855.86
2018-09-29T05:03:03.929Z,99861.16
2018-09-29T05:05:32.892Z,99854.58
2018-09-29T05:08:01.849Z,99852.52
2018-09-29T05:10:30.795Z,99855.16
2018-09-29T05:12:59.774Z,99858.95
2018-09-29T05:15:28.730Z,99861.65
2018-09-29T05:17:58.262Z,99857.19
2018-09-29T05:20:27.271Z,99854.03
2018-09-29T05:22:56.239Z,99851.33
2018-09-29T05:25:25.244Z,99850.84
2018-09-29T05:27:54.211Z,99850.84
2018-09-29T05:30:23.182Z,99852.64
2018-09-29T05:32:52.110Z,99848.59
2018-09-29T05:35:21.063Z,99843.98
2018-09-29T05:37:50.020Z,99851.95
2018-09-29T05:40:18.982Z,99856.12
2018-09-29T05:42:47.913Z,99852.76
2018-09-29T05:45:16.978Z,99863.53
2018-09-29T05:47:45.954Z,99858.25
2018-09-29T05:50:14.891Z,99853.56
2018-09-29T05:52:43.865Z,99861.34
2018-09-29T05:55:12.825Z,99867.03
2018-09-29T05:57:41.803Z,99859.08
2018-09-29T06:00:10.810Z,99859.61
2018-09-29T06:02:39.730Z,99862.17
2018-09-29T06:05:08.692Z,99857.05
2018-09-29T06:07:37.736Z,99863.98
2018-09-29T06:10:06.730Z,99864.38
2018-09-29T06:12:35.703Z,99872.41
2018-09-29T06:15:04.666Z,99878.37
2018-09-29T06:17:33.624Z,99872.03
2018-09-29T06:20:02.615Z,99878.08
2018-09-29T06:22:31.573Z,99877.44
2018-09-29T06:25:00.546Z,99888.38
2018-09-29T06:27:29.554Z,99893.19
2018-09-29T06:29:58.638Z,99892.45
2018-09-29T06:32:27.595Z,99898.19
2018-09-29T06:34:56.559Z,99900.47
2018-09-29T06:37:25.520Z,99904.81
2018-09-29T06:39:54.471Z,99908.36
2018-09-29T06:42:23.451Z,99900.98
2018-09-29T06:44:52.826Z,99896.81
2018-09-29T06:47:21.822Z,99892.34
2018-09-29T06:49:50.783Z,99893.42
2018-09-29T06:52:19.935Z,99897.64
2018-09-29T06:54:48.914Z,99890.11
2018-09-29T06:57:17.889Z,99895.51
2018-09-29T06:59:46.878Z,99896.00
2018-09-29T07:02:15.845Z,99893.23
2018-09-29T07:04:44.823Z,99898.30
2018-09-29T07:07:13.753Z,99905.59
2018-09-29T07:09:42.825Z,99906.38
2018-09-29T07:12:13.975Z,99910.45
2018-09-29T07:14:42.973Z,99908.82
2018-09-29T07:17:11.945Z,99909.02
2018-09-29T07:19:40.966Z,99912.53
2018-09-29T07:22:10.039Z,99919.38
2018-09-29T07:24:39.045Z,99919.64
2018-09-29T07:27:07.987Z,99918.17
2018-09-29T07:29:36.934Z,99919.55
2018-09-29T07:32:06.025Z,99912.08
2018-09-29T07:34:34.988Z,99916.38
2018-09-29T07:37:03.999Z,99916.58
2018-09-29T07:39:32.944Z,99911.63
2018-09-29T07:42:01.987Z,99917.45
2018-09-29T07:44:31.006Z,99913.03
2018-09-29T07:47:00.016Z,99907.10
2018-09-29T07:49:29.058Z,99910.75
2018-09-29T07:51:58.028Z,99916.24
2018-09-29T07:54:27.074Z,99911.80
2018-09-29T07:56:56.049Z,99917.08
2018-09-29T07:59:25.340Z,99912.86
2018-09-29T08:01:54.322Z,99911.27
2018-09-29T08:04:23.388Z,99906.42
2018-09-29T08:06:52.377Z,99901.81
2018-09-29T08:09:21.324Z,99905.86
2018-09-29T08:11:50.313Z,99905.86
2018-09-29T08:14:19.274Z,99909.27
2018-09-29T08:16:48.298Z,99908.91
2018-09-29T08:19:17.239Z,99910.06
2018-09-29T08:21:46.173Z,99915.34
2018-09-29T08:24:15.165Z,99911.03
2018-09-29T08:26:44.254Z,99910.84
2018-09-29T08:29:13.208Z,99909.42
2018-09-29T08:31:42.166Z,99911.54
2018-09-29T08:34:11.457Z,99921.77
2018-09-29T08:36:40.420Z,99918.27
2018-09-29T08:39:10.131Z,99910.80
2018-09-29T08:41:39.174Z,99911.45
2018-09-29T08:44:08.118Z,99908.70
2018-09-29T08:46:37.173Z,99902.62
2018-09-29T08:49:06.094Z,99902.56
2018-09-29T08:51:35.071Z,99903.87
2018-09-29T08:54:04.023Z,99900.98
2018-09-29T08:56:33.048Z,99895.80
2018-09-29T08:59:02.095Z,99891.64
2018-09-29T09:01:31.152Z,99882.63
2018-09-29T09:04:00.103Z,99877.98
2018-09-29T09:06:29.078Z,99882.59
2018-09-29T09:08:58.122Z,99894.57
2018-09-29T09:11:27.137Z,99889.61
2018-09-29T09:13:56.128Z,99892.27
2018-09-29T09:16:25.079Z,99888.56
2018-09-29T09:18:54.069Z,99889.23
2018-09-29T09:21:23.056Z,99886.19
2018-09-29T09:23:52.155Z,99886.87
2018-09-29T09:26:21.096Z,99887.24
2018-09-29T09:28:50.058Z,99891.75
2018-09-29T09:31:19.078Z,99896.22
2018-09-29T09:33:48.105Z,99893.48
2018-09-29T09:36:17.052Z,99894.84
2018-09-29T09:38:46.053Z,99883.45
2018-09-29T09:41:15.018Z,99883.93
2018-09-29T09:43:44.007Z,99890.91
2018-09-29T09:46:13.248Z,99896.53
2018-09-29T09:48:42.214Z,99898.25
2018-09-29T09:51:11.175Z,99894.26
2018-09-29T09:53:40.167Z,99893.66
2018-09-29T09:56:09.232Z,99899.81
2018-09-29T09:58:38.723Z,99902.55
2018-09-29T10:01:13.051Z,99900.18
2018-09-29T10:03:42.009Z,99895.26
2018-09-29T10:06:11.011Z,99898.09
2018-09-29T10:08:39.994Z,99893.37
2018-09-29T10:11:09.039Z,99894.58
2018-09-29T10:13:38.159Z,99889.98
2018-09-29T10:16:07.307Z,99889.21
2018-09-29T10:18:36.281Z,99891.21
2018-09-29T10:21:05.251Z,99894.70
2018-09-29T10:23:34.235Z,99888.44
2018-09-29T10:26:03.187Z,99890.45
2018-09-29T10:28:32.203Z,99889.36
2018-09-29T10:31:01.175Z,99882.29
2018-09-29T10:33:30.129Z,99879.02
2018-09-29T10:35:59.120Z,99880.16
2018-09-29T10:38:28.178Z,99878.19
2018-09-29T10:40:57.174Z,99875.20
2018-09-29T10:43:26.135Z,99874.97
2018-09-29T10:45:55.112Z,99875.19
2018-09-29T10:48:24.074Z,99869.41
2018-09-29T10:50:53.019Z,99866.59
2018-09-29T10:53:22.026Z,99865.80
2018-09-29T10:55:50.972Z,99863.78
2018-09-29T10:58:20.046Z,99858.02
2018-09-29T11:00:49.012Z,99853.02
2018-09-29T11:03:17.963Z,99855.22
2018-09-29T11:05:46.938Z,99850.31
2018-09-29T11:08:15.903Z,99847.46
2018-09-29T11:10:44.972Z,99842.84
2018-09-29T11:13:13.914Z,99847.19
2018-09-29T11:15:42.858Z,99841.81
2018-09-29T11:18:11.815Z,99848.25
2018-09-29T11:20:40.795Z,99842.25
2018-09-29T11:23:09.753Z,99837.92
2018-09-29T11:25:38.729Z,99835.74
2018-09-29T11:28:07.780Z,99837.40
2018-09-29T11:30:36.684Z,99836.26
2018-09-29T11:33:05.724Z,99840.97
2018-09-29T11:35:34.670Z,99835.96
2018-09-29T11:38:03.624Z,99837.83
2018-09-29T11:40:32.715Z,99834.91
2018-09-29T11:43:01.667Z,99836.88
2018-09-29T11:45:30.679Z,99828.06
2018-09-29T11:47:59.679Z,99833.37
2018-09-29T11:50:28.751Z,99836.05
2018-09-29T11:52:57.821Z,99832.62
2018-09-29T11:55:26.867Z,99832.67
2018-09-29T11:57:55.911Z,99831.00
2018-09-29T12:00:24.885Z,99828.75
2018-09-29T12:02:54.123Z,99820.19
2018-09-29T12:05:23.127Z,99819.39
2018-09-29T12:07:52.163Z,99821.72
2018-09-29T12:10:21.126Z,99822.67
2018-09-29T12:12:50.139Z,99817.77
2018-09-29T12:15:19.122Z,99814.06
2018-09-29T12:17:48.126Z,99812.90
2018-09-29T12:20:17.143Z,99811.35
2018-09-29T12:22:46.150Z,99807.38
2018-09-29T12:25:15.115Z,99802.52
2018-09-29T12:27:44.062Z,99797.32
2018-09-29T12:30:13.059Z,99798.02
2018-09-29T12:32:42.048Z,99790.92
2018-09-29T12:35:11.100Z,99795.20
2018-09-29T12:37:40.091Z,99791.70
2018-09-29T12:40:09.064Z,99779.87
2018-09-29T12:42:38.140Z,99782.81
2018-09-29T12:45:07.334Z,99790.71
2018-09-29T12:47:36.399Z,99780.11
2018-09-29T12:50:05.386Z,99784.97
2018-09-29T12:52:34.358Z,99786.41
2018-09-29T12:55:03.337Z,99781.94
2018-09-29T12:57:32.366Z,99783.54
2018-09-29T13:00:01.353Z,99780.72
2018-09-29T13:02:30.371Z,99780.66
2018-09-29T13:04:59.445Z,99783.49
2018-09-29T13:07:28.472Z,99781.27
2018-09-29T13:09:57.499Z,99780.11
2018-09-29T13:12:26.482Z,99781.25
2018-09-29T13:14:55.520Z,99782.19
2018-09-29T13:17:24.504Z,99776.92
2018-09-29T13:19:53.614Z,99780.87
2018-09-29T13:22:22.571Z,99785.45
2018-09-29T13:24:51.538Z,99783.91
2018-09-29T13:27:20.530Z,99777.60
2018-09-29T13:29:49.475Z,99778.47
2018-09-29T13:32:18.522Z,99780.09
2018-09-29T13:34:47.493Z,99782.34
2018-09-29T13:37:16.515Z,99779.09
2018-09-29T13:39:45.487Z,99776.16
2018-09-29T13:42:14.481Z,99772.95
2018-09-29T13:44:43.511Z,99778.52
2018-09-29T13:47:12.481Z,99774.19
2018-09-29T13:49:41.452Z,99777.83
2018-09-29T13:52:10.488Z,99781.47
2018-09-29T13:54:39.474Z,99781.73
2018-09-29T13:57:08.457Z,99784.79
2018-09-29T13:59:37.461Z,99779.31
2018-09-29T14:02:06.479Z,99778.87
2018-09-29T14:04:35.522Z,99785.53
2018-09-29T14:07:04.531Z,99779.51
2018-09-29T14:09:33.477Z,99781.36
2018-09-29T14:12:02.478Z,99784.38
2018-09-29T14:14:31.467Z,99784.61
2018-09-29T14:17:00.451Z,99779.34
2018-09-29T14:19:29.436Z,99775.88
2018-09-29T14:21:58.446Z,99780.70
2018-09-29T14:24:27.409Z,99786.94
2018-09-29T14:26:56.527Z,99786.57
2018-09-29T14:29:25.475Z,99793.38
2018-09-29T14:31:54.433Z,99797.35
2018-09-29T14:34:23.448Z,99798.19
2018-09-29T14:36:52.571Z,99800.02
2018-09-29T14:39:21.543Z,99798.06
2018-09-29T14:41:50.522Z,99798.27
2018-09-29T14:44:19.494Z,99797.69
2018-09-29T14:46:48.463Z,99807.51
2018-09-29T14:49:17.487Z,99801.41
2018-09-29T14:51:46.458Z,99796.67
2018-09-29T14:54:15.444Z,99808.07
2018-09-29T14:56:44.458Z,99803.91
2018-09-29T14:59:18.394Z,99813.04
2018-09-29T15:01:47.447Z,99812.64
2018-09-29T15:04:16.500Z,99817.48
2018-09-29T15:06:45.492Z,99822.30
2018-09-29T15:09:14.507Z,99824.68
2018-09-29T15:11:43.477Z,99828.73
2018-09-29T15:14:12.516Z,99825.39
2018-09-29T15:16:41.668Z,99829.36
2018-09-29T15:19:10.671Z,99833.15
2018-09-29T15:21:39.662Z,99824.02
2018-09-29T15:24:08.673Z,99820.13
2018-09-29T15:26:41.200Z,99817.59
2018-09-29T15:29:10.287Z,99824.88
2018-09-29T15:31:39.317Z,99823.88
2018-09-29T15:34:08.319Z,99820.17
2018-09-29T15:36:37.326Z,99824.17
2018-09-29T15:39:09.597Z,99826.23
2018-09-29T15:41:38.590Z,99828.47
2018-09-29T15:44:07.708Z,99834.50
2018-09-29T15:46:36.744Z,99837.50
2018-09-29T15:49:05.882Z,99826.55
2018-09-29T15:51:34.982Z,99835.42
2018-09-29T15:54:03.979Z,99830.84
2018-09-29T15:56:32.957Z,99838.55
2018-09-29T15:59:01.899Z,99837.56
2018-09-29T16:01:30.931Z,99845.35
2018-09-29T16:03:59.876Z,99846.95
2018-09-29T16:06:28.884Z,99853.95
2018-09-29T16:08:57.871Z,99848.95
2018-09-29T16:11:26.833Z,99855.85
2018-09-29T16:13:55.784Z,99853.88
2018-09-29T16:16:24.756Z,99858.67
2018-09-29T16:18:53.707Z,99862.86
2018-09-29T16:21:22.669Z,99864.89
2018-09-29T16:23:51.926Z,99868.53
2018-09-29T16:26:20.908Z,99876.11
2018-09-29T16:28:49.874Z,99880.74
2018-09-29T16:31:18.962Z,99879.03
2018-09-29T16:33:47.887Z,99885.14
2018-09-29T16:36:16.886Z,99884.52
2018-09-29T16:38:45.845Z,99884.38
2018-09-29T16:41:14.783Z,99891.34
2018-09-29T16:43:43.785Z,99894.11
2018-09-29T16:46:12.693Z,99900.74
2018-09-29T16:48:41.638Z,99902.99
2018-09-29T16:51:10.635Z,99901.67
2018-09-29T16:53:39.655Z,99907.58
2018-09-29T16:56:08.815Z,99914.94
2018-09-29T16:58:37.852Z,99925.92
2018-09-29T17:01:07.163Z,99931.56
2018-09-29T17:03:36.170Z,99931.04
2018-09-29T17:06:05.110Z,99937.31
2018-09-29T17:08:34.088Z,99941.03
2018-09-29T17:11:03.033Z,99943.20
2018-09-29T17:13:31.991Z,99951.02
2018-09-29T17:16:01.073Z,99950.70
2018-09-29T17:18:29.919Z,99949.86
2018-09-29T17:20:58.847Z,99949.30
2018-09-29T17:23:27.835Z,99956.19
2018-09-29T17:25:56.795Z,99963.69
2018-09-29T17:28:25.726Z,99968.63
2018-09-29T17:30:54.744Z,99974.21
2018-09-29T17:33:23.679Z,99978.98
2018-09-29T17:35:52.624Z,99993.36
2018-09-29T17:38:21.562Z,100001.98
2018-09-29T17:40:50.570Z,100002.80
2018-09-29T17:43:19.511Z,100004.78
2018-09-29T17:45:48.465Z,100008.95
2018-09-29T17:48:17.441Z,100015.64
2018-09-29T17:50:46.402Z,100031.50
2018-09-29T17:53:15.481Z,100032.11
2018-09-29T17:55:44.630Z,100039.52
2018-09-29T17:58:13.599Z,100042.05
2018-09-29T18:00:42.614Z,100045.00
2018-09-29T18:03:11.616Z,100051.16
2018-09-29T18:05:40.686Z,100057.22
2018-09-29T18:08:09.699Z,100060.34
2018-09-29T18:10:38.710Z,100065.34
2018-09-29T18:13:07.671Z,100071.52
2018-09-29T18:15:36.674Z,100083.84
2018-09-29T18:18:05.666Z,100096.16
2018-09-29T18:20:34.664Z,100100.44
2018-09-29T18:23:03.743Z,100110.22
2018-09-29T18:25:32.719Z,100109.39
2018-09-29T18:28:01.746Z,100122.39
2018-09-29T18:30:30.726Z,100124.58
2018-09-29T18:32:59.686Z,100132.47
2018-09-29T18:35:28.670Z,100144.06
2018-09-29T18:38:12.400Z,100147.52
2018-09-29T18:40:41.428Z,100160.80
2018-09-29T18:43:10.370Z,100169.17
2018-09-29T18:45:39.381Z,100180.50
2018-09-29T18:48:08.367Z,100185.67
2018-09-29T18:50:37.307Z,100189.56
2018-09-29T18:53:06.275Z,100196.16
2018-09-29T18:55:35.224Z,100203.41
2018-09-29T18:58:04.234Z,100214.01
2018-09-29T19:00:33.169Z,100220.27
2018-09-29T19:03:02.115Z,100235.62
2018-09-29T19:05:31.086Z,100244.81
2018-09-29T19:08:00.096Z,100248.89
2018-09-29T19:10:29.062Z,100254.36
2018-09-29T19:12:58.045Z,100252.44
2018-09-29T19:15:27.015Z,100259.36
2018-09-29T19:17:55.947Z,100257.87
2018-09-29T19:20:24.888Z,100270.48
2018-09-29T19:22:53.827Z,100284.48
2018-09-29T19:25:22.786Z,100282.36
2018-09-29T19:27:51.724Z,100288.05
2018-09-29T19:30:20.749Z,100285.35
2018-09-29T19:32:49.694Z,100284.22
2018-09-29T19:35:18.641Z,100286.15
2018-09-29T19:37:47.620Z,100290.32
2018-09-29T19:40:16.576Z,100287.86
2018-09-29T19:42:45.570Z,100296.30
2018-09-29T19:45:14.533Z,100296.00
2018-09-29T19:47:43.507Z,100300.05
2018-09-29T19:50:12.454Z,100296.94
2018-09-29T19:52:41.530Z,100295.77
2018-09-29T19:55:10.622Z,100295.44
2018-09-29T19:57:39.607Z,100306.48
2018-09-29T20:00:08.639Z,100306.67
2018-09-29T20:02:37.577Z,100311.14
2018-09-29T20:05:06.694Z,100313.00
2018-09-29T20:07:35.724Z,100308.34
2018-09-29T20:10:04.800Z,100312.60
2018-09-29T20:12:33.759Z,100317.39
2018-09-29T20:15:02.933Z,100313.58
2018-09-29T20:17:31.858Z,100315.66
2018-09-29T20:20:00.794Z,100319.58
2018-09-29T20:22:29.735Z,100319.97
2018-09-29T20:24:58.688Z,100325.41
2018-09-29T20:27:27.693Z,100320.39
2018-09-29T20:29:56.663Z,100327.48
2018-09-29T20:32:25.631Z,100334.12
2018-09-29T20:34:54.637Z,100336.05
2018-09-29T20:37:23.750Z,100341.49
2018-09-29T20:39:52.680Z,100342.00
2018-09-29T20:42:21.613Z,100347.86
2018-09-29T20:44:50.577Z,100353.09
2018-09-29T20:47:19.572Z,100348.91
2018-09-29T20:49:48.533Z,100354.14
2018-09-29T20:52:17.514Z,100360.38
2018-09-29T20:54:46.503Z,100355.99
2018-09-29T20:57:15.486Z,100354.48
2018-09-29T20:59:44.524Z,100361.11
2018-09-29T21:02:13.484Z,100368.48
2018-09-29T21:04:42.431Z,100375.34
2018-09-29T21:07:11.697Z,100364.19
2018-09-29T21:09:40.688Z,100372.22
2018-09-29T21:12:09.696Z,100376.55
2018-09-29T21:14:38.640Z,100380.55
2018-09-29T21:17:07.638Z,100383.73
2018-09-29T21:19:36.656Z,100383.17
2018-09-29T21:22:05.680Z,100392.34
2018-09-29T21:24:34.636Z,100389.41
2018-09-29T21:27:03.599Z,100393.30
2018-09-29T21:29:32.586Z,100390.30
2018-09-29T21:32:01.543Z,100394.53
2018-09-29T21:34:30.499Z,100401.61
2018-09-29T21:36:59.475Z,100403.91
2018-09-29T21:39:28.452Z,100401.55
2018-09-29T21:41:57.395Z,100398.34
2018-09-29T21:44:26.389Z,100406.12
2018-09-29T21:46:55.343Z,100405.92
2018-09-29T21:49:24.318Z,100405.28
2018-09-29T21:51:53.267Z,100414.70
2018-09-29T21:54:22.206Z,100409.14
2018-09-29T21:56:51.198Z,100398.80
2018-09-29T21:59:20.135Z,100403.19
2018-09-29T22:01:49.104Z,100399.84
2018-09-29T22:04:18.044Z,100396.94
2018-09-29T22:06:47.939Z,100400.20
2018-09-29T22:09:22.445Z,100404.58
2018-09-29T22:11:52.026Z,100414.59
2018-09-29T22:14:20.973Z,100422.20
2018-09-29T22:16:49.930Z,100423.87
2018-09-29T22:19:18.917Z,100428.27
2018-09-29T22:21:47.867Z,100426.91
2018-09-29T22:24:16.862Z,100428.44
2018-09-29T22:26:45.802Z,100430.96
2018-09-29T22:29:14.749Z,100436.69
2018-09-29T22:31:43.785Z,100441.58
2018-09-29T22:34:12.786Z,100444.75
2018-09-29T22:36:41.719Z,100454.35
2018-09-29T22:39:11.934Z,100456.77
2018-09-29T22:41:40.901Z,100465.98
2018-09-29T22:44:09.854Z,100464.47
2018-09-29T22:46:38.799Z,100468.52
2018-09-29T22:49:07.772Z,100473.42
2018-09-29T22:51:36.750Z,100472.73
2018-09-29T22:54:05.743Z,100475.42
2018-09-29T22:56:34.785Z,100474.09
2018-09-29T22:59:03.714Z,100464.98
2018-09-29T23:01:32.674Z,100478.81
2018-09-29T23:04:01.618Z,100472.41
2018-09-29T23:06:30.548Z,100478.80
2018-09-29T23:08:59.508Z,100476.91
2018-09-29T23:11:28.470Z,100474.76
2018-09-29T23:13:57.455Z,100485.55
2018-09-29T23:16:26.414Z,100486.73
2018-09-29T23:18:55.499Z,100484.55
2018-09-29T23:21:24.450Z,100477.63
2018-09-29T23:23:53.387Z,100477.19
2018-09-29T23:26:22.345Z,100474.94
2018-09-29T23:28:51.282Z,100478.81
2018-09-29T23:31:20.238Z,100486.58
2018-09-29T23:33:49.178Z,100490.11
2018-09-29T23:36:18.136Z,100495.02
2018-09-29T23:38:47.054Z,100494.00
2018-09-29T23:41:16.067Z,100489.44
2018-09-29T23:43:45.044Z,100482.53
2018-09-29T23:46:14.010Z,100479.78
2018-09-29T23:48:42.955Z,100478.13
2018-09-29T23:51:11.890Z,100481.84
2018-09-29T23:53:40.869Z,100487.41
2018-09-29T23:56:09.816Z,100489.94
2018-09-29T23:58:38.806Z,100495.34
